sensor_id;sensor_type;location;lat;lon;timestamp;temperature;humidity
50758;DHT22;36732;47.980;11.652;2022-12-07T00:01:22;7.40;65.10
50758;DHT22;36732;47.980;11.652;2022-12-07T00:03:50;7.40;65.10
50758;DHT22;36732;47.980;11.652;2022-12-07T00:06:18;7.50;65.20
50758;DHT22;36732;47.980;11.652;2022-12-07T00:08:45;7.50;65.10
50758;DHT22;36732;47.980;11.652;2022-12-07T00:11:14;7.50;65.20
50758;DHT22;36732;47.980;11.652;2022-12-07T00:13:41;7.50;65.20
50758;DHT22;36732;47.980;11.652;2022-12-07T00:16:10;7.50;65.20
50758;DHT22;36732;47.980;11.652;2022-12-07T00:18:40;7.40;65.10
50758;DHT22;36732;47.980;11.652;2022-12-07T00:21:15;7.40;65.10
50758;DHT22;36732;47.980;11.652;2022-12-07T00:23:47;7.50;65.20
50758;DHT22;36732;47.980;11.652;2022-12-07T00:26:21;7.50;65.10
50758;DHT22;36732;47.980;11.652;2022-12-07T00:28:57;7.50;65.10
50758;DHT22;36732;47.980;11.652;2022-12-07T00:31:27;7.50;65.10
50758;DHT22;36732;47.980;11.652;2022-12-07T00:33:55;7.40;65.10
50758;DHT22;36732;47.980;11.652;2022-12-07T00:36:22;7.50;65.70
50758;DHT22;36732;47.980;11.652;2022-12-07T00:38:49;7.50;65.10
50758;DHT22;36732;47.980;11.652;2022-12-07T00:41:19;7.50;65.10
50758;DHT22;36732;47.980;11.652;2022-12-07T00:43:48;7.40;65.10
50758;DHT22;36732;47.980;11.652;2022-12-07T00:46:15;7.40;65.00
50758;DHT22;36732;47.980;11.652;2022-12-07T00:48:42;7.40;65.00
50758;DHT22;36732;47.980;11.652;2022-12-07T00:51:09;7.40;65.10
50758;DHT22;36732;47.980;11.652;2022-12-07T00:53:40;7.40;65.10
50758;DHT22;36732;47.980;11.652;2022-12-07T00:58:32;7.40;65.10
50758;DHT22;36732;47.980;11.652;2022-12-07T01:01:00;7.40;65.10
50758;DHT22;36732;47.980;11.652;2022-12-07T01:03:27;7.40;65.10
50758;DHT22;36732;47.980;11.652;2022-12-07T01:05:55;7.40;65.10
50758;DHT22;36732;47.980;11.652;2022-12-07T01:08:21;7.40;65.10
50758;DHT22;36732;47.980;11.652;2022-12-07T01:10:48;7.40;65.10
50758;DHT22;36732;47.980;11.652;2022-12-07T01:13:15;7.40;65.10
50758;DHT22;36732;47.980;11.652;2022-12-07T01:15:43;7.40;65.10
50758;DHT22;36732;47.980;11.652;2022-12-07T01:18:09;7.40;65.10
50758;DHT22;36732;47.980;11.652;2022-12-07T01:20:35;7.40;65.20
50758;DHT22;36732;47.980;11.652;2022-12-07T01:23:02;7.40;65.10
50758;DHT22;36732;47.980;11.652;2022-12-07T01:25:28;7.40;65.20
50758;DHT22;36732;47.980;11.652;2022-12-07T01:27:54;7.40;65.10
50758;DHT22;36732;47.980;11.652;2022-12-07T01:30:20;7.40;65.10
50758;DHT22;36732;47.980;11.652;2022-12-07T01:32:45;7.40;65.10
50758;DHT22;36732;47.980;11.652;2022-12-07T01:35:11;7.40;65.10
50758;DHT22;36732;47.980;11.652;2022-12-07T01:37:38;7.40;65.10
50758;DHT22;36732;47.980;11.652;2022-12-07T01:40:06;7.40;65.10
50758;DHT22;36732;47.980;11.652;2022-12-07T01:42:33;7.40;65.10
50758;DHT22;36732;47.980;11.652;2022-12-07T01:45:38;7.40;65.10
50758;DHT22;36732;47.980;11.652;2022-12-07T01:48:05;7.40;65.10
50758;DHT22;36732;47.980;11.652;2022-12-07T01:50:33;7.40;65.00
50758;DHT22;36732;47.980;11.652;2022-12-07T01:53:02;7.40;65.00
50758;DHT22;36732;47.980;11.652;2022-12-07T01:55:30;7.40;65.00
50758;DHT22;36732;47.980;11.652;2022-12-07T01:57:56;7.40;65.10
50758;DHT22;36732;47.980;11.652;2022-12-07T02:00:22;7.40;65.00
50758;DHT22;36732;47.980;11.652;2022-12-07T02:02:53;7.40;65.00
50758;DHT22;36732;47.980;11.652;2022-12-07T02:05:22;7.30;65.00
50758;DHT22;36732;47.980;11.652;2022-12-07T02:07:49;7.40;65.00
50758;DHT22;36732;47.980;11.652;2022-12-07T02:10:22;7.40;65.00
50758;DHT22;36732;47.980;11.652;2022-12-07T02:13:16;7.40;65.10
50758;DHT22;36732;47.980;11.652;2022-12-07T02:16:04;7.40;65.10
50758;DHT22;36732;47.980;11.652;2022-12-07T02:22:23;7.30;65.00
50758;DHT22;36732;47.980;11.652;2022-12-07T02:30:16;7.30;65.00
50758;DHT22;36732;47.980;11.652;2022-12-07T02:32:54;7.40;65.10
50758;DHT22;36732;47.980;11.652;2022-12-07T02:35:34;7.30;65.20
50758;DHT22;36732;47.980;11.652;2022-12-07T02:38:16;7.30;65.20
50758;DHT22;36732;47.980;11.652;2022-12-07T02:41:27;7.30;65.20
50758;DHT22;36732;47.980;11.652;2022-12-07T02:44:00;7.30;65.20
50758;DHT22;36732;47.980;11.652;2022-12-07T02:46:31;7.30;65.20
50758;DHT22;36732;47.980;11.652;2022-12-07T02:48:59;7.30;65.20
50758;DHT22;36732;47.980;11.652;2022-12-07T02:51:30;7.30;65.20
50758;DHT22;36732;47.980;11.652;2022-12-07T02:53:56;7.30;65.20
50758;DHT22;36732;47.980;11.652;2022-12-07T03:07:35;7.30;65.20
50758;DHT22;36732;47.980;11.652;2022-12-07T03:16:15;7.30;65.10
50758;DHT22;36732;47.980;11.652;2022-12-07T03:19:09;7.30;65.10
50758;DHT22;36732;47.980;11.652;2022-12-07T03:21:45;7.30;65.10
50758;DHT22;36732;47.980;11.652;2022-12-07T03:24:20;7.30;65.00
50758;DHT22;36732;47.980;11.652;2022-12-07T03:26:51;7.30;65.00
50758;DHT22;36732;47.980;11.652;2022-12-07T03:29:25;7.30;65.10
50758;DHT22;36732;47.980;11.652;2022-12-07T03:32:04;7.30;65.10
50758;DHT22;36732;47.980;11.652;2022-12-07T03:34:56;7.30;65.10
50758;DHT22;36732;47.980;11.652;2022-12-07T03:37:34;7.30;65.10
50758;DHT22;36732;47.980;11.652;2022-12-07T03:40:18;7.30;65.00
50758;DHT22;36732;47.980;11.652;2022-12-07T03:42:49;7.30;65.10
50758;DHT22;36732;47.980;11.652;2022-12-07T03:45:16;7.30;65.00
50758;DHT22;36732;47.980;11.652;2022-12-07T03:48:05;7.30;65.10
50758;DHT22;36732;47.980;11.652;2022-12-07T03:50:55;7.30;65.10
50758;DHT22;36732;47.980;11.652;2022-12-07T03:53:40;7.30;65.10
50758;DHT22;36732;47.980;11.652;2022-12-07T03:56:11;7.30;65.00
50758;DHT22;36732;47.980;11.652;2022-12-07T03:58:38;7.30;65.00
50758;DHT22;36732;47.980;11.652;2022-12-07T04:01:04;7.30;65.10
50758;DHT22;36732;47.980;11.652;2022-12-07T04:03:30;7.30;65.10
50758;DHT22;36732;47.980;11.652;2022-12-07T04:05:56;7.30;65.10
50758;DHT22;36732;47.980;11.652;2022-12-07T04:08:23;7.30;65.10
50758;DHT22;36732;47.980;11.652;2022-12-07T04:10:49;7.30;65.10
50758;DHT22;36732;47.980;11.652;2022-12-07T04:13:14;7.30;65.10
50758;DHT22;36732;47.980;11.652;2022-12-07T04:15:40;7.20;65.10
50758;DHT22;36732;47.980;11.652;2022-12-07T04:18:06;7.30;65.10
50758;DHT22;36732;47.980;11.652;2022-12-07T04:20:32;7.30;65.10
50758;DHT22;36732;47.980;11.652;2022-12-07T04:22:57;7.30;65.20
50758;DHT22;36732;47.980;11.652;2022-12-07T04:25:23;7.30;65.20
50758;DHT22;36732;47.980;11.652;2022-12-07T04:27:49;7.30;65.20
50758;DHT22;36732;47.980;11.652;2022-12-07T04:30:15;7.30;65.20
50758;DHT22;36732;47.980;11.652;2022-12-07T04:32:40;7.20;65.10
50758;DHT22;36732;47.980;11.652;2022-12-07T04:35:06;7.30;65.20
50758;DHT22;36732;47.980;11.652;2022-12-07T04:37:32;7.20;65.10
50758;DHT22;36732;47.980;11.652;2022-12-07T04:39:58;7.20;65.10
50758;DHT22;36732;47.980;11.652;2022-12-07T04:42:24;7.30;65.20
50758;DHT22;36732;47.980;11.652;2022-12-07T04:44:49;7.30;65.20
50758;DHT22;36732;47.980;11.652;2022-12-07T04:47:16;7.30;65.20
50758;DHT22;36732;47.980;11.652;2022-12-07T04:49:42;7.30;65.20
50758;DHT22;36732;47.980;11.652;2022-12-07T04:52:07;7.30;65.30
50758;DHT22;36732;47.980;11.652;2022-12-07T04:54:33;7.30;65.20
50758;DHT22;36732;47.980;11.652;2022-12-07T04:56:59;7.30;65.30
50758;DHT22;36732;47.980;11.652;2022-12-07T04:59:25;7.20;65.20
50758;DHT22;36732;47.980;11.652;2022-12-07T05:01:50;7.30;65.30
50758;DHT22;36732;47.980;11.652;2022-12-07T05:04:16;7.20;65.20
50758;DHT22;36732;47.980;11.652;2022-12-07T05:06:43;7.30;65.30
50758;DHT22;36732;47.980;11.652;2022-12-07T05:09:09;7.20;65.20
50758;DHT22;36732;47.980;11.652;2022-12-07T05:11:35;7.20;65.20
50758;DHT22;36732;47.980;11.652;2022-12-07T05:14:06;7.20;65.20
50758;DHT22;36732;47.980;11.652;2022-12-07T05:16:38;7.20;65.20
50758;DHT22;36732;47.980;11.652;2022-12-07T05:19:05;7.30;65.10
50758;DHT22;36732;47.980;11.652;2022-12-07T05:21:30;7.30;65.20
50758;DHT22;36732;47.980;11.652;2022-12-07T05:23:56;7.20;65.00
50758;DHT22;36732;47.980;11.652;2022-12-07T05:26:22;7.20;65.00
50758;DHT22;36732;47.980;11.652;2022-12-07T05:28:54;7.20;65.00
50758;DHT22;36732;47.980;11.652;2022-12-07T05:31:21;7.20;64.80
50758;DHT22;36732;47.980;11.652;2022-12-07T05:33:48;7.20;64.90
50758;DHT22;36732;47.980;11.652;2022-12-07T05:36:13;7.20;64.90
50758;DHT22;36732;47.980;11.652;2022-12-07T05:38:39;7.20;64.90
50758;DHT22;36732;47.980;11.652;2022-12-07T05:41:06;7.20;64.90
50758;DHT22;36732;47.980;11.652;2022-12-07T05:43:33;7.20;65.10
50758;DHT22;36732;47.980;11.652;2022-12-07T05:45:59;7.20;65.10
50758;DHT22;36732;47.980;11.652;2022-12-07T05:48:25;7.20;65.10
50758;DHT22;36732;47.980;11.652;2022-12-07T05:50:52;7.20;64.90
50758;DHT22;36732;47.980;11.652;2022-12-07T05:53:18;7.20;64.90
50758;DHT22;36732;47.980;11.652;2022-12-07T05:55:44;7.20;64.90
50758;DHT22;36732;47.980;11.652;2022-12-07T05:58:10;7.20;64.90
50758;DHT22;36732;47.980;11.652;2022-12-07T06:00:55;7.20;64.60
50758;DHT22;36732;47.980;11.652;2022-12-07T06:03:21;7.20;64.50
50758;DHT22;36732;47.980;11.652;2022-12-07T06:05:47;7.20;64.60
50758;DHT22;36732;47.980;11.652;2022-12-07T06:08:12;7.10;64.60
50758;DHT22;36732;47.980;11.652;2022-12-07T06:10:40;7.10;64.70
50758;DHT22;36732;47.980;11.652;2022-12-07T06:13:07;7.10;64.60
50758;DHT22;36732;47.980;11.652;2022-12-07T06:15:36;7.10;64.60
50758;DHT22;36732;47.980;11.652;2022-12-07T06:18:02;7.10;64.60
50758;DHT22;36732;47.980;11.652;2022-12-07T06:20:27;7.10;64.70
50758;DHT22;36732;47.980;11.652;2022-12-07T06:22:53;7.10;64.70
50758;DHT22;36732;47.980;11.652;2022-12-07T06:25:19;7.10;64.70
50758;DHT22;36732;47.980;11.652;2022-12-07T06:27:44;7.10;64.70
50758;DHT22;36732;47.980;11.652;2022-12-07T06:30:10;7.10;64.70
50758;DHT22;36732;47.980;11.652;2022-12-07T06:32:36;7.10;64.60
50758;DHT22;36732;47.980;11.652;2022-12-07T06:35:03;7.10;64.70
50758;DHT22;36732;47.980;11.652;2022-12-07T06:37:29;7.00;64.60
50758;DHT22;36732;47.980;11.652;2022-12-07T06:39:55;7.10;64.60
50758;DHT22;36732;47.980;11.652;2022-12-07T06:42:20;7.00;64.60
50758;DHT22;36732;47.980;11.652;2022-12-07T06:44:46;7.00;64.60
50758;DHT22;36732;47.980;11.652;2022-12-07T06:47:12;7.10;64.60
50758;DHT22;36732;47.980;11.652;2022-12-07T06:49:38;7.10;64.60
50758;DHT22;36732;47.980;11.652;2022-12-07T06:52:04;7.10;64.50
50758;DHT22;36732;47.980;11.652;2022-12-07T06:54:30;7.10;64.50
50758;DHT22;36732;47.980;11.652;2022-12-07T06:56:56;7.00;64.40
50758;DHT22;36732;47.980;11.652;2022-12-07T06:59:22;7.10;64.50
50758;DHT22;36732;47.980;11.652;2022-12-07T07:01:48;7.00;64.40
50758;DHT22;36732;47.980;11.652;2022-12-07T07:04:13;7.00;64.40
50758;DHT22;36732;47.980;11.652;2022-12-07T07:06:39;7.00;64.40
50758;DHT22;36732;47.980;11.652;2022-12-07T07:09:05;7.00;64.40
50758;DHT22;36732;47.980;11.652;2022-12-07T07:11:31;7.00;64.40
50758;DHT22;36732;47.980;11.652;2022-12-07T07:13:56;7.00;64.40
50758;DHT22;36732;47.980;11.652;2022-12-07T07:16:27;7.00;64.50
50758;DHT22;36732;47.980;11.652;2022-12-07T07:18:56;7.00;64.60
50758;DHT22;36732;47.980;11.652;2022-12-07T07:21:22;7.00;64.70
50758;DHT22;36732;47.980;11.652;2022-12-07T07:23:49;7.00;64.80
50758;DHT22;36732;47.980;11.652;2022-12-07T07:26:14;7.00;64.80
50758;DHT22;36732;47.980;11.652;2022-12-07T07:28:40;7.00;64.80
50758;DHT22;36732;47.980;11.652;2022-12-07T07:31:06;7.00;64.80
50758;DHT22;36732;47.980;11.652;2022-12-07T07:33:32;7.00;64.90
50758;DHT22;36732;47.980;11.652;2022-12-07T07:35:57;7.00;64.80
50758;DHT22;36732;47.980;11.652;2022-12-07T07:38:23;7.00;64.80
50758;DHT22;36732;47.980;11.652;2022-12-07T07:40:49;7.10;64.80
50758;DHT22;36732;47.980;11.652;2022-12-07T07:43:15;7.10;64.90
50758;DHT22;36732;47.980;11.652;2022-12-07T07:45:40;7.10;64.80
50758;DHT22;36732;47.980;11.652;2022-12-07T07:48:06;7.00;64.80
50758;DHT22;36732;47.980;11.652;2022-12-07T07:50:32;7.10;64.80
50758;DHT22;36732;47.980;11.652;2022-12-07T07:52:58;7.10;64.80
50758;DHT22;36732;47.980;11.652;2022-12-07T07:55:23;7.10;64.80
50758;DHT22;36732;47.980;11.652;2022-12-07T07:57:49;7.10;64.70
50758;DHT22;36732;47.980;11.652;2022-12-07T08:00:16;7.10;64.70
50758;DHT22;36732;47.980;11.652;2022-12-07T08:02:42;7.10;64.70
50758;DHT22;36732;47.980;11.652;2022-12-07T08:05:09;7.10;64.70
50758;DHT22;36732;47.980;11.652;2022-12-07T08:07:35;7.10;64.60
50758;DHT22;36732;47.980;11.652;2022-12-07T08:10:02;7.10;64.60
50758;DHT22;36732;47.980;11.652;2022-12-07T08:12:27;7.10;64.60
50758;DHT22;36732;47.980;11.652;2022-12-07T08:14:53;7.10;64.70
50758;DHT22;36732;47.980;11.652;2022-12-07T08:17:19;7.10;64.60
50758;DHT22;36732;47.980;11.652;2022-12-07T08:19:45;7.10;64.60
50758;DHT22;36732;47.980;11.652;2022-12-07T08:22:10;7.10;64.60
50758;DHT22;36732;47.980;11.652;2022-12-07T08:24:36;7.10;64.60
50758;DHT22;36732;47.980;11.652;2022-12-07T08:27:02;7.10;64.60
50758;DHT22;36732;47.980;11.652;2022-12-07T08:29:28;7.10;64.60
50758;DHT22;36732;47.980;11.652;2022-12-07T08:31:54;7.10;64.60
50758;DHT22;36732;47.980;11.652;2022-12-07T08:34:20;7.10;64.50
50758;DHT22;36732;47.980;11.652;2022-12-07T08:36:46;7.10;64.50
50758;DHT22;36732;47.980;11.652;2022-12-07T08:39:12;7.10;64.60
50758;DHT22;36732;47.980;11.652;2022-12-07T08:41:38;7.10;64.60
50758;DHT22;36732;47.980;11.652;2022-12-07T08:44:04;7.10;64.60
50758;DHT22;36732;47.980;11.652;2022-12-07T08:46:34;7.10;64.60
50758;DHT22;36732;47.980;11.652;2022-12-07T08:49:16;7.10;64.60
50758;DHT22;36732;47.980;11.652;2022-12-07T08:51:46;7.10;64.70
50758;DHT22;36732;47.980;11.652;2022-12-07T08:54:15;7.10;64.80
50758;DHT22;36732;47.980;11.652;2022-12-07T08:56:43;7.20;64.70
50758;DHT22;36732;47.980;11.652;2022-12-07T08:59:10;7.20;64.70
50758;DHT22;36732;47.980;11.652;2022-12-07T09:01:35;7.20;64.80
50758;DHT22;36732;47.980;11.652;2022-12-07T09:04:01;7.20;64.70
50758;DHT22;36732;47.980;11.652;2022-12-07T09:06:27;7.20;64.70
50758;DHT22;36732;47.980;11.652;2022-12-07T09:08:56;7.20;64.80
50758;DHT22;36732;47.980;11.652;2022-12-07T09:11:23;7.10;64.70
50758;DHT22;36732;47.980;11.652;2022-12-07T09:13:49;7.20;64.70
50758;DHT22;36732;47.980;11.652;2022-12-07T09:16:15;7.20;64.90
50758;DHT22;36732;47.980;11.652;2022-12-07T09:18:41;7.20;65.00
50758;DHT22;36732;47.980;11.652;2022-12-07T09:21:07;7.20;65.10
50758;DHT22;36732;47.980;11.652;2022-12-07T09:23:33;7.10;65.00
50758;DHT22;36732;47.980;11.652;2022-12-07T09:26:03;7.20;65.10
50758;DHT22;36732;47.980;11.652;2022-12-07T09:28:33;7.20;65.00
50758;DHT22;36732;47.980;11.652;2022-12-07T09:30:58;7.20;65.10
50758;DHT22;36732;47.980;11.652;2022-12-07T09:33:24;7.20;65.20
50758;DHT22;36732;47.980;11.652;2022-12-07T09:35:51;7.20;65.20
50758;DHT22;36732;47.980;11.652;2022-12-07T09:38:19;7.20;65.20
50758;DHT22;36732;47.980;11.652;2022-12-07T09:40:46;7.20;65.20
50758;DHT22;36732;47.980;11.652;2022-12-07T09:43:20;7.20;65.20
50758;DHT22;36732;47.980;11.652;2022-12-07T09:45:50;7.20;65.20
50758;DHT22;36732;47.980;11.652;2022-12-07T09:48:21;7.30;65.30
50758;DHT22;36732;47.980;11.652;2022-12-07T09:50:57;7.30;65.20
50758;DHT22;36732;47.980;11.652;2022-12-07T09:53:30;7.30;65.20
50758;DHT22;36732;47.980;11.652;2022-12-07T09:56:00;7.30;65.20
50758;DHT22;36732;47.980;11.652;2022-12-07T09:58:28;7.30;65.20
50758;DHT22;36732;47.980;11.652;2022-12-07T10:01:01;7.30;65.20
50758;DHT22;36732;47.980;11.652;2022-12-07T10:03:38;7.30;65.20
50758;DHT22;36732;47.980;11.652;2022-12-07T10:06:06;7.30;65.20
50758;DHT22;36732;47.980;11.652;2022-12-07T10:08:32;7.40;65.20
50758;DHT22;36732;47.980;11.652;2022-12-07T10:11:01;7.40;65.20
50758;DHT22;36732;47.980;11.652;2022-12-07T10:13:37;7.30;65.20
50758;DHT22;36732;47.980;11.652;2022-12-07T10:16:32;7.40;65.20
50758;DHT22;36732;47.980;11.652;2022-12-07T10:19:18;7.40;65.20
50758;DHT22;36732;47.980;11.652;2022-12-07T10:22:11;7.40;65.10
50758;DHT22;36732;47.980;11.652;2022-12-07T10:24:39;7.40;65.20
50758;DHT22;36732;47.980;11.652;2022-12-07T10:27:22;7.40;65.20
50758;DHT22;36732;47.980;11.652;2022-12-07T10:29:52;7.40;65.20
50758;DHT22;36732;47.980;11.652;2022-12-07T10:34:44;7.40;65.20
50758;DHT22;36732;47.980;11.652;2022-12-07T10:39:55;7.40;65.20
50758;DHT22;36732;47.980;11.652;2022-12-07T10:45:15;7.40;65.10
50758;DHT22;36732;47.980;11.652;2022-12-07T10:48:03;7.40;65.10
50758;DHT22;36732;47.980;11.652;2022-12-07T10:53:26;7.50;65.30
50758;DHT22;36732;47.980;11.652;2022-12-07T11:04:55;7.50;65.20
50758;DHT22;36732;47.980;11.652;2022-12-07T11:10:30;7.50;65.80
50758;DHT22;36732;47.980;11.652;2022-12-07T11:19:23;7.50;65.10
50758;DHT22;36732;47.980;11.652;2022-12-07T11:25:38;7.50;65.10
50758;DHT22;36732;47.980;11.652;2022-12-07T11:31:13;7.50;64.90
50758;DHT22;36732;47.980;11.652;2022-12-07T11:34:39;7.50;64.80
50758;DHT22;36732;47.980;11.652;2022-12-07T11:37:24;7.60;64.70
50758;DHT22;36732;47.980;11.652;2022-12-07T11:43:05;7.50;64.70
50758;DHT22;36732;47.980;11.652;2022-12-07T11:45:39;7.50;64.70
50758;DHT22;36732;47.980;11.652;2022-12-07T11:51:02;7.50;64.70
50758;DHT22;36732;47.980;11.652;2022-12-07T11:53:41;7.60;64.70
50758;DHT22;36732;47.980;11.652;2022-12-07T11:56:17;7.50;64.70
50758;DHT22;36732;47.980;11.652;2022-12-07T11:59:02;7.50;64.80
50758;DHT22;36732;47.980;11.652;2022-12-07T12:06:41;7.60;65.00
50758;DHT22;36732;47.980;11.652;2022-12-07T12:12:21;7.60;64.70
50758;DHT22;36732;47.980;11.652;2022-12-07T12:15:23;7.60;64.80
50758;DHT22;36732;47.980;11.652;2022-12-07T12:21:27;7.60;64.30
50758;DHT22;36732;47.980;11.652;2022-12-07T12:24:19;7.60;64.40
50758;DHT22;36732;47.980;11.652;2022-12-07T12:26:51;7.60;64.40
50758;DHT22;36732;47.980;11.652;2022-12-07T12:40:53;7.60;64.50
50758;DHT22;36732;47.980;11.652;2022-12-07T12:51:46;7.60;64.40
50758;DHT22;36732;47.980;11.652;2022-12-07T12:54:27;7.60;64.60
50758;DHT22;36732;47.980;11.652;2022-12-07T12:57:05;7.60;64.50
50758;DHT22;36732;47.980;11.652;2022-12-07T13:02:36;7.60;64.40
50758;DHT22;36732;47.980;11.652;2022-12-07T13:13:25;7.60;64.10
50758;DHT22;36732;47.980;11.652;2022-12-07T13:16:36;7.60;64.60
50758;DHT22;36732;47.980;11.652;2022-12-07T13:18:40;7.70;64.40
50758;DHT22;36732;47.980;11.652;2022-12-07T13:26:17;7.60;64.30
50758;DHT22;36732;47.980;11.652;2022-12-07T13:29:14;7.60;64.40
50758;DHT22;36732;47.980;11.652;2022-12-07T13:31:50;7.60;64.30
50758;DHT22;36732;47.980;11.652;2022-12-07T13:34:53;7.60;64.30
50758;DHT22;36732;47.980;11.652;2022-12-07T13:37:26;7.70;64.40
50758;DHT22;36732;47.980;11.652;2022-12-07T13:39:59;7.70;64.20
50758;DHT22;36732;47.980;11.652;2022-12-07T13:42:29;7.60;64.20
50758;DHT22;36732;47.980;11.652;2022-12-07T13:45:22;7.70;64.30
50758;DHT22;36732;47.980;11.652;2022-12-07T13:50:54;7.70;64.10
50758;DHT22;36732;47.980;11.652;2022-12-07T13:53:22;7.60;64.10
50758;DHT22;36732;47.980;11.652;2022-12-07T13:55:49;7.70;64.20
50758;DHT22;36732;47.980;11.652;2022-12-07T13:58:15;7.70;64.30
50758;DHT22;36732;47.980;11.652;2022-12-07T14:00:42;7.60;64.20
50758;DHT22;36732;47.980;11.652;2022-12-07T14:05:44;7.60;64.00
50758;DHT22;36732;47.980;11.652;2022-12-07T14:11:01;7.60;63.90
50758;DHT22;36732;47.980;11.652;2022-12-07T14:13:51;7.60;63.90
50758;DHT22;36732;47.980;11.652;2022-12-07T14:19:03;7.70;63.80
50758;DHT22;36732;47.980;11.652;2022-12-07T14:21:32;7.70;63.60
50758;DHT22;36732;47.980;11.652;2022-12-07T14:26:44;7.70;63.60
50758;DHT22;36732;47.980;11.652;2022-12-07T14:31:54;7.60;63.40
50758;DHT22;36732;47.980;11.652;2022-12-07T14:34:21;7.60;63.60
50758;DHT22;36732;47.980;11.652;2022-12-07T14:36:47;7.70;63.80
50758;DHT22;36732;47.980;11.652;2022-12-07T14:39:13;7.60;63.70
50758;DHT22;36732;47.980;11.652;2022-12-07T14:41:39;7.60;63.70
50758;DHT22;36732;47.980;11.652;2022-12-07T14:44:21;7.60;63.70
50758;DHT22;36732;47.980;11.652;2022-12-07T14:46:48;7.60;63.70
50758;DHT22;36732;47.980;11.652;2022-12-07T14:49:15;7.60;63.60
50758;DHT22;36732;47.980;11.652;2022-12-07T14:51:42;7.60;63.60
50758;DHT22;36732;47.980;11.652;2022-12-07T14:54:19;7.60;63.50
50758;DHT22;36732;47.980;11.652;2022-12-07T14:56:46;7.60;63.40
50758;DHT22;36732;47.980;11.652;2022-12-07T14:59:16;7.60;63.40
50758;DHT22;36732;47.980;11.652;2022-12-07T15:01:42;7.60;63.40
50758;DHT22;36732;47.980;11.652;2022-12-07T15:04:08;7.60;63.30
50758;DHT22;36732;47.980;11.652;2022-12-07T15:06:34;7.60;63.90
50758;DHT22;36732;47.980;11.652;2022-12-07T15:09:00;7.60;63.20
50758;DHT22;36732;47.980;11.652;2022-12-07T15:11:25;7.60;63.30
50758;DHT22;36732;47.980;11.652;2022-12-07T15:13:51;7.60;63.20
50758;DHT22;36732;47.980;11.652;2022-12-07T15:16:39;7.50;63.10
50758;DHT22;36732;47.980;11.652;2022-12-07T15:19:13;7.60;63.20
50758;DHT22;36732;47.980;11.652;2022-12-07T15:21:41;7.60;63.10
50758;DHT22;36732;47.980;11.652;2022-12-07T15:24:09;7.50;63.10
50758;DHT22;36732;47.980;11.652;2022-12-07T15:26:36;7.50;63.10
50758;DHT22;36732;47.980;11.652;2022-12-07T15:29:03;7.50;63.10
50758;DHT22;36732;47.980;11.652;2022-12-07T15:31:29;7.50;63.10
50758;DHT22;36732;47.980;11.652;2022-12-07T15:33:54;7.50;63.10
50758;DHT22;36732;47.980;11.652;2022-12-07T15:36:23;7.50;63.10
50758;DHT22;36732;47.980;11.652;2022-12-07T15:38:50;7.40;62.90
50758;DHT22;36732;47.980;11.652;2022-12-07T15:41:18;7.40;63.00
50758;DHT22;36732;47.980;11.652;2022-12-07T15:43:44;7.40;63.10
50758;DHT22;36732;47.980;11.652;2022-12-07T15:46:40;7.40;63.00
50758;DHT22;36732;47.980;11.652;2022-12-07T15:49:17;7.40;62.90
50758;DHT22;36732;47.980;11.652;2022-12-07T15:51:44;7.40;62.90
50758;DHT22;36732;47.980;11.652;2022-12-07T15:54:19;7.40;63.00
50758;DHT22;36732;47.980;11.652;2022-12-07T15:56:46;7.40;62.90
50758;DHT22;36732;47.980;11.652;2022-12-07T15:59:12;7.30;62.90
50758;DHT22;36732;47.980;11.652;2022-12-07T16:01:38;7.30;62.90
50758;DHT22;36732;47.980;11.652;2022-12-07T16:04:04;7.30;62.80
50758;DHT22;36732;47.980;11.652;2022-12-07T16:06:29;7.30;62.80
50758;DHT22;36732;47.980;11.652;2022-12-07T16:08:55;7.30;62.90
50758;DHT22;36732;47.980;11.652;2022-12-07T16:11:21;7.30;62.90
50758;DHT22;36732;47.980;11.652;2022-12-07T16:13:47;7.30;62.90
50758;DHT22;36732;47.980;11.652;2022-12-07T16:16:15;7.30;62.80
50758;DHT22;36732;47.980;11.652;2022-12-07T16:18:43;7.30;62.90
50758;DHT22;36732;47.980;11.652;2022-12-07T16:21:10;7.30;62.90
50758;DHT22;36732;47.980;11.652;2022-12-07T16:23:36;7.30;62.90
50758;DHT22;36732;47.980;11.652;2022-12-07T16:26:07;7.30;63.00
50758;DHT22;36732;47.980;11.652;2022-12-07T16:28:36;7.30;63.00
50758;DHT22;36732;47.980;11.652;2022-12-07T16:31:08;7.20;62.90
50758;DHT22;36732;47.980;11.652;2022-12-07T16:33:36;7.20;62.90
50758;DHT22;36732;47.980;11.652;2022-12-07T16:36:04;7.20;62.90
50758;DHT22;36732;47.980;11.652;2022-12-07T16:38:30;7.20;63.70
50758;DHT22;36732;47.980;11.652;2022-12-07T16:40:56;7.20;63.00
50758;DHT22;36732;47.980;11.652;2022-12-07T16:43:22;7.20;63.10
50758;DHT22;36732;47.980;11.652;2022-12-07T16:45:48;7.20;63.10
50758;DHT22;36732;47.980;11.652;2022-12-07T16:48:14;7.20;63.10
50758;DHT22;36732;47.980;11.652;2022-12-07T16:50:41;7.20;63.00
50758;DHT22;36732;47.980;11.652;2022-12-07T16:53:11;7.20;63.10
50758;DHT22;36732;47.980;11.652;2022-12-07T16:55:39;7.20;63.10
50758;DHT22;36732;47.980;11.652;2022-12-07T16:58:06;7.20;63.10
50758;DHT22;36732;47.980;11.652;2022-12-07T17:00:32;7.20;63.70
50758;DHT22;36732;47.980;11.652;2022-12-07T17:02:58;7.20;63.00
50758;DHT22;36732;47.980;11.652;2022-12-07T17:05:25;7.20;63.00
50758;DHT22;36732;47.980;11.652;2022-12-07T17:07:56;7.20;63.00
50758;DHT22;36732;47.980;11.652;2022-12-07T17:10:23;7.20;63.00
50758;DHT22;36732;47.980;11.652;2022-12-07T17:12:49;7.20;63.00
50758;DHT22;36732;47.980;11.652;2022-12-07T17:15:16;7.30;63.00
50758;DHT22;36732;47.980;11.652;2022-12-07T17:17:42;7.20;63.00
50758;DHT22;36732;47.980;11.652;2022-12-07T17:20:09;7.30;63.00
50758;DHT22;36732;47.980;11.652;2022-12-07T17:22:35;7.20;62.90
50758;DHT22;36732;47.980;11.652;2022-12-07T17:25:02;7.30;63.00
50758;DHT22;36732;47.980;11.652;2022-12-07T17:27:29;7.30;63.00
50758;DHT22;36732;47.980;11.652;2022-12-07T17:29:55;7.30;63.00
50758;DHT22;36732;47.980;11.652;2022-12-07T17:32:20;7.30;63.00
50758;DHT22;36732;47.980;11.652;2022-12-07T17:34:46;7.30;62.90
50758;DHT22;36732;47.980;11.652;2022-12-07T17:37:12;7.30;62.90
50758;DHT22;36732;47.980;11.652;2022-12-07T17:39:37;7.30;62.80
50758;DHT22;36732;47.980;11.652;2022-12-07T17:42:03;7.30;62.80
50758;DHT22;36732;47.980;11.652;2022-12-07T17:44:47;7.30;62.80
50758;DHT22;36732;47.980;11.652;2022-12-07T17:47:13;7.30;62.80
50758;DHT22;36732;47.980;11.652;2022-12-07T17:49:41;7.30;62.70
50758;DHT22;36732;47.980;11.652;2022-12-07T17:52:07;7.30;62.70
50758;DHT22;36732;47.980;11.652;2022-12-07T17:54:52;7.30;62.70
50758;DHT22;36732;47.980;11.652;2022-12-07T17:57:18;7.30;62.70
50758;DHT22;36732;47.980;11.652;2022-12-07T17:59:43;7.30;62.70
50758;DHT22;36732;47.980;11.652;2022-12-07T18:02:10;7.30;62.60